createdAt,value
2017-07-10T00:00:59.434Z,18.75
2017-07-10T00:01:59.409Z,18.79
2017-07-10T00:02:59.081Z,18.79
2017-07-10T00:03:59.366Z,18.72
2017-07-10T00:04:59.355Z,18.62
2017-07-10T00:05:59.331Z,18.66
2017-07-10T00:06:59.050Z,18.62
2017-07-10T00:07:59.288Z,18.59
2017-07-10T00:08:59.270Z,18.62
2017-07-10T00:09:59.260Z,18.65
2017-07-10T00:10:59.283Z,18.6
2017-07-10T00:11:59.212Z,18.72
2017-07-10T00:12:59.200Z,18.69
2017-07-10T00:13:58.866Z,18.66
2017-07-10T00:14:59.157Z,18.69
2017-07-10T00:15:58.829Z,18.64
2017-07-10T00:16:59.116Z,18.62
2017-07-10T00:17:58.781Z,18.59
2017-07-10T00:18:59.082Z,18.51
2017-07-10T00:19:59.058Z,18.57
2017-07-10T00:20:59.040Z,18.59
2017-07-10T00:21:59.020Z,18.59
2017-07-10T00:22:58.998Z,18.62
2017-07-10T00:23:58.973Z,18.59
2017-07-10T00:24:59.007Z,18.65
2017-07-10T00:25:58.933Z,18.57
2017-07-10T00:26:58.922Z,18.49
2017-07-10T00:27:58.897Z,18.51
2017-07-10T00:28:58.880Z,18.54
2017-07-10T00:29:58.859Z,18.6
2017-07-10T00:30:58.838Z,18.6
2017-07-10T00:31:58.824Z,18.66
2017-07-10T00:32:58.799Z,18.5
2017-07-10T00:33:58.784Z,18.56
2017-07-10T00:34:58.510Z,18.57
2017-07-10T00:35:58.441Z,18.56
2017-07-10T00:36:58.728Z,18.59
2017-07-10T00:37:58.703Z,18.57
2017-07-10T00:38:58.684Z,18.53
2017-07-10T00:39:58.663Z,18.57
2017-07-10T00:40:58.645Z,18.53
2017-07-10T00:41:58.313Z,18.62
2017-07-10T00:42:58.599Z,18.51
2017-07-10T00:43:58.580Z,18.5
2017-07-10T00:44:58.569Z,18.53
2017-07-10T00:45:58.237Z,18.49
2017-07-10T00:46:58.524Z,18.5
2017-07-10T00:47:58.501Z,18.49
2017-07-10T00:48:58.486Z,18.53
2017-07-10T00:49:58.766Z,18.5
2017-07-10T00:50:58.447Z,18.5
2017-07-10T00:51:58.434Z,18.57
2017-07-10T00:52:58.411Z,18.53
2017-07-10T00:53:58.400Z,18.54
2017-07-10T00:54:58.369Z,18.5
2017-07-10T00:55:58.356Z,18.47
2017-07-10T00:56:58.335Z,18.53
2017-07-10T00:57:57.691Z,18.47
2017-07-10T00:58:58.304Z,18.59
2017-07-10T00:59:57.959Z,18.53
2017-07-10T01:00:58.256Z,18.53
2017-07-10T01:01:58.230Z,18.53
2017-07-10T01:02:58.207Z,18.54
2017-07-10T01:03:58.188Z,18.56
2017-07-10T01:04:58.171Z,18.5
2017-07-10T01:05:58.151Z,18.53
2017-07-10T01:06:57.814Z,18.53
2017-07-10T01:07:57.808Z,18.47
2017-07-10T01:08:58.096Z,18.53
2017-07-10T01:09:58.076Z,18.41
2017-07-10T01:10:58.045Z,18.49
2017-07-10T01:11:58.045Z,18.51
2017-07-10T01:12:58.015Z,18.49
2017-07-10T01:13:57.685Z,18.54
2017-07-10T01:14:57.657Z,18.5
2017-07-10T01:15:57.952Z,18.5
2017-07-10T01:16:57.624Z,18.49
2017-07-10T01:17:57.910Z,18.39
2017-07-10T01:18:57.633Z,18.42
2017-07-10T01:19:57.875Z,18.5
2017-07-10T01:20:58.105Z,18.5
2017-07-10T01:21:57.823Z,18.54
2017-07-10T01:22:57.812Z,18.51
2017-07-10T01:23:57.784Z,18.53
2017-07-10T01:24:57.772Z,18.49
2017-07-10T01:25:57.749Z,18.34
2017-07-10T01:26:57.733Z,18.38
2017-07-10T01:27:57.402Z,18.49
2017-07-10T01:28:57.691Z,18.54
2017-07-10T01:29:57.673Z,18.51
2017-07-10T01:30:57.709Z,18.47
2017-07-10T01:31:57.635Z,18.51
2017-07-10T01:32:57.614Z,18.51
2017-07-10T01:33:57.591Z,18.5
2017-07-10T01:34:57.571Z,18.56
2017-07-10T01:35:57.557Z,18.51
2017-07-10T01:36:57.537Z,18.56
2017-07-10T01:37:57.205Z,18.5
2017-07-10T01:38:57.490Z,18.59
2017-07-10T01:39:57.472Z,18.54
2017-07-10T01:40:57.194Z,18.53
2017-07-10T01:41:57.440Z,18.54
2017-07-10T01:42:57.105Z,18.49
2017-07-10T01:43:57.398Z,18.6
2017-07-10T01:44:57.064Z,18.54
2017-07-10T01:45:57.354Z,18.51
2017-07-10T01:46:57.341Z,18.5
2017-07-10T01:47:57.327Z,18.56
2017-07-10T01:48:57.292Z,18.53
2017-07-10T01:49:57.276Z,18.38
2017-07-10T01:50:57.268Z,18.44
2017-07-10T01:51:57.239Z,18.38
2017-07-10T01:52:57.222Z,18.28
2017-07-10T01:53:57.204Z,18.34
2017-07-10T01:54:57.188Z,18.38
2017-07-10T01:55:56.846Z,18.29
2017-07-10T01:56:56.830Z,18.35
2017-07-10T01:57:57.119Z,18.34
2017-07-10T01:58:57.094Z,18.26
2017-07-10T01:59:57.087Z,18.25
2017-07-10T02:00:56.748Z,18.26
2017-07-10T02:01:57.036Z,18.23
2017-07-10T02:02:57.017Z,18.16
2017-07-10T02:03:57.010Z,18.17
2017-07-10T02:04:56.667Z,18.14
2017-07-10T02:05:56.963Z,18.11
2017-07-10T02:06:56.940Z,18.11
2017-07-10T02:07:56.918Z,18.04
2017-07-10T02:08:56.896Z,18.04
2017-07-10T02:09:56.874Z,18.07
2017-07-10T02:10:56.545Z,18.07
2017-07-10T02:11:57.095Z,18.16
2017-07-10T02:12:56.817Z,18.07
2017-07-10T02:13:56.796Z,18.13
2017-07-10T02:14:56.777Z,18.1
2017-07-10T02:15:56.454Z,17.98
2017-07-10T02:16:56.792Z,17.95
2017-07-10T02:17:56.719Z,17.96
2017-07-10T02:18:56.706Z,17.89
2017-07-10T02:19:56.676Z,17.98
2017-07-10T02:20:56.658Z,18.04
2017-07-10T02:21:56.640Z,17.83
2017-07-10T02:22:56.618Z,17.96
2017-07-10T02:23:56.595Z,17.89
2017-07-10T02:24:56.574Z,18.01
2017-07-10T02:25:56.612Z,17.98
2017-07-10T02:26:56.240Z,17.99
2017-07-10T02:27:56.217Z,18.07
2017-07-10T02:28:56.188Z,18.07
2017-07-10T02:29:56.485Z,17.92
2017-07-10T02:30:56.149Z,18.01
2017-07-10T02:31:56.490Z,18.09
2017-07-10T02:32:56.413Z,18.07
2017-07-10T02:33:56.399Z,18.01
2017-07-10T02:34:56.376Z,18.02
2017-07-10T02:35:56.357Z,18.02
2017-07-10T02:36:56.028Z,18.01
2017-07-10T02:37:56.313Z,18.04
2017-07-10T02:38:56.292Z,18.09
2017-07-10T02:39:55.665Z,18.05
2017-07-10T02:40:56.261Z,18.09
2017-07-10T02:41:55.929Z,18.09
2017-07-10T02:42:55.913Z,18.01
2017-07-10T02:43:55.895Z,18.01
2017-07-10T02:44:56.194Z,17.99
2017-07-10T02:45:55.855Z,18.02
2017-07-10T02:46:55.831Z,17.98
2017-07-10T02:47:56.119Z,18.04
2017-07-10T02:48:56.105Z,17.96
2017-07-10T02:49:56.082Z,17.96
2017-07-10T02:50:56.063Z,17.96
2017-07-10T02:51:55.727Z,17.98
2017-07-10T02:52:56.022Z,18.07
2017-07-10T02:53:56.002Z,18.01
2017-07-10T02:54:55.981Z,18.01
2017-07-10T02:55:55.659Z,17.91
2017-07-10T02:56:55.641Z,17.89
2017-07-10T02:57:55.610Z,18.01
2017-07-10T02:58:55.952Z,17.98
2017-07-10T02:59:55.877Z,17.92
2017-07-10T03:00:55.863Z,17.94
2017-07-10T03:01:55.910Z,17.99
2017-07-10T03:02:55.515Z,17.89
2017-07-10T03:03:55.490Z,17.96
2017-07-10T03:04:55.780Z,17.87
2017-07-10T03:05:55.759Z,17.89
2017-07-10T03:06:55.746Z,17.83
2017-07-10T03:07:55.735Z,17.8
2017-07-10T03:08:55.387Z,17.79
2017-07-10T03:09:55.681Z,17.77
2017-07-10T03:10:56.111Z,17.73
2017-07-10T03:11:55.638Z,17.77
2017-07-10T03:12:55.625Z,17.77
2017-07-10T03:13:55.602Z,17.8
2017-07-10T03:14:55.578Z,17.79
2017-07-10T03:15:55.665Z,17.79
2017-07-10T03:16:55.545Z,17.79
2017-07-10T03:17:55.518Z,17.83
2017-07-10T03:18:55.193Z,17.83
2017-07-10T03:19:55.469Z,17.84
2017-07-10T03:20:55.484Z,17.81
2017-07-10T03:21:55.441Z,17.96
2017-07-10T03:22:55.110Z,17.98
2017-07-10T03:23:55.398Z,17.91
2017-07-10T03:24:55.424Z,17.98
2017-07-10T03:25:55.359Z,17.99
2017-07-10T03:26:55.334Z,17.99
2017-07-10T03:27:55.016Z,17.95
2017-07-10T03:28:55.003Z,17.84
2017-07-10T03:29:55.428Z,17.84
2017-07-10T03:30:55.318Z,17.89
2017-07-10T03:31:55.253Z,17.91
2017-07-10T03:32:55.219Z,17.92
2017-07-10T03:33:55.202Z,17.87
2017-07-10T03:34:55.224Z,17.95
2017-07-10T03:35:54.853Z,17.94
2017-07-10T03:36:56.142Z,17.94
2017-07-10T03:37:55.128Z,17.92
2017-07-10T03:38:55.095Z,17.94
2017-07-10T03:39:54.772Z,17.95
2017-07-10T03:40:55.058Z,17.94
2017-07-10T03:41:55.037Z,17.94
2017-07-10T03:42:55.016Z,17.89
2017-07-10T03:43:55.052Z,17.86
2017-07-10T03:44:54.975Z,18.01
2017-07-10T03:45:54.959Z,17.98
2017-07-10T03:46:54.985Z,17.83
2017-07-10T03:47:54.914Z,17.87
2017-07-10T03:48:54.894Z,17.92
2017-07-10T03:49:54.883Z,17.98
2017-07-10T03:50:54.856Z,17.99
2017-07-10T03:51:54.578Z,17.99
2017-07-10T03:52:54.814Z,17.96
2017-07-10T03:53:54.739Z,17.94
2017-07-10T03:54:54.833Z,17.92
2017-07-10T03:55:54.766Z,17.92
2017-07-10T03:56:54.736Z,17.86
2017-07-10T03:57:54.720Z,17.83
2017-07-10T03:58:54.393Z,17.79
2017-07-10T03:59:54.683Z,17.77
2017-07-10T04:00:54.670Z,17.74
2017-07-10T04:01:54.332Z,17.71
2017-07-10T04:02:54.615Z,17.66
2017-07-10T04:03:54.606Z,17.68
2017-07-10T04:04:54.581Z,17.76
2017-07-10T04:05:54.557Z,17.73
2017-07-10T04:06:54.231Z,17.66
2017-07-10T04:07:54.516Z,17.63
2017-07-10T04:08:54.504Z,17.62
2017-07-10T04:09:54.173Z,17.58
2017-07-10T04:10:54.755Z,17.57
2017-07-10T04:11:54.448Z,17.66
2017-07-10T04:12:54.415Z,17.66
2017-07-10T04:13:54.404Z,17.74
2017-07-10T04:14:54.382Z,17.73
2017-07-10T04:15:54.051Z,17.79
2017-07-10T04:16:54.032Z,17.89
2017-07-10T04:17:54.323Z,17.76
2017-07-10T04:18:54.294Z,17.83
2017-07-10T04:19:54.280Z,17.76
2017-07-10T04:20:54.259Z,17.83
2017-07-10T04:21:54.232Z,17.92
2017-07-10T04:22:54.215Z,17.94
2017-07-10T04:23:53.578Z,17.91
2017-07-10T04:24:53.867Z,17.87
2017-07-10T04:25:54.164Z,17.94
2017-07-10T04:26:54.142Z,17.86
2017-07-10T04:27:54.125Z,17.98
2017-07-10T04:28:54.151Z,17.96
2017-07-10T04:29:54.079Z,18.09
2017-07-10T04:30:53.755Z,18.05
2017-07-10T04:31:54.047Z,18.09
2017-07-10T04:32:54.019Z,18.01
2017-07-10T04:33:54.000Z,17.96
2017-07-10T04:34:53.983Z,17.99
2017-07-10T04:35:53.653Z,17.99
2017-07-10T04:36:53.940Z,18.05
2017-07-10T04:37:53.923Z,17.98
2017-07-10T04:38:53.901Z,17.99
2017-07-10T04:39:53.573Z,18.07
2017-07-10T04:40:53.855Z,17.94
2017-07-10T04:41:53.836Z,17.98
2017-07-10T04:42:53.872Z,17.95
2017-07-10T04:43:53.798Z,17.83
2017-07-10T04:44:53.779Z,17.99
2017-07-10T04:45:53.770Z,17.95
2017-07-10T04:46:53.742Z,18.02
2017-07-10T04:47:53.729Z,17.94
2017-07-10T04:48:53.701Z,18.02
2017-07-10T04:49:53.682Z,17.96
2017-07-10T04:50:53.045Z,18.09
2017-07-10T04:51:53.639Z,18.05
2017-07-10T04:52:53.624Z,18.1
2017-07-10T04:53:53.605Z,18.04
2017-07-10T04:54:53.584Z,18.14
2017-07-10T04:55:53.565Z,18.07
2017-07-10T04:56:53.540Z,18.07
2017-07-10T04:57:53.528Z,18.07
2017-07-10T04:58:53.199Z,18.07
2017-07-10T04:59:53.179Z,18.11
2017-07-10T05:00:53.467Z,18.17
2017-07-10T05:01:53.497Z,18.09
2017-07-10T05:02:53.426Z,18.1
2017-07-10T05:03:53.403Z,18.11
2017-07-10T05:04:53.388Z,18.07
2017-07-10T05:05:53.361Z,18.09
2017-07-10T05:06:53.041Z,18.09
2017-07-10T05:07:53.328Z,18.07
2017-07-10T05:08:52.995Z,18.1
2017-07-10T05:09:52.968Z,18.14
2017-07-10T05:10:53.033Z,18.13
2017-07-10T05:11:53.301Z,18.11
2017-07-10T05:12:52.964Z,18.13
2017-07-10T05:13:53.213Z,18.19
2017-07-10T05:14:53.188Z,18.13
2017-07-10T05:15:53.172Z,18.14
2017-07-10T05:16:53.149Z,18.04
2017-07-10T05:17:53.126Z,18.09
2017-07-10T05:18:53.107Z,17.98
2017-07-10T05:19:53.083Z,17.98
2017-07-10T05:20:53.069Z,18.05
2017-07-10T05:21:53.050Z,18.05
2017-07-10T05:22:53.025Z,18.07
2017-07-10T05:23:52.696Z,18.04
2017-07-10T05:24:52.731Z,18.07
2017-07-10T05:25:53.014Z,18.04
2017-07-10T05:26:52.965Z,18.07
2017-07-10T05:27:52.993Z,18.04
2017-07-10T05:28:52.913Z,18.05
2017-07-10T05:29:53.134Z,18.1
2017-07-10T05:30:52.860Z,17.99
2017-07-10T05:31:52.541Z,17.87
2017-07-10T05:32:52.517Z,17.89
2017-07-10T05:33:52.809Z,17.83
2017-07-10T05:34:52.792Z,17.89
2017-07-10T05:35:52.764Z,17.95
2017-07-10T05:36:52.789Z,17.84
2017-07-10T05:37:52.725Z,17.99
2017-07-10T05:38:52.706Z,17.99
2017-07-10T05:39:52.690Z,18.01
2017-07-10T05:40:52.664Z,17.91
2017-07-10T05:41:52.650Z,18.02
2017-07-10T05:42:52.625Z,17.92
2017-07-10T05:43:52.616Z,17.99
2017-07-10T05:44:52.657Z,18.05
2017-07-10T05:45:52.577Z,18.01
2017-07-10T05:46:52.548Z,17.95
2017-07-10T05:47:52.534Z,17.96
2017-07-10T05:48:52.202Z,17.96
2017-07-10T05:49:52.488Z,17.87
2017-07-10T05:50:52.479Z,17.83
2017-07-10T05:51:52.450Z,17.81
2017-07-10T05:52:52.429Z,17.84
2017-07-10T05:53:52.414Z,17.77
2017-07-10T05:54:52.091Z,17.8
2017-07-10T05:55:52.373Z,17.74
2017-07-10T05:56:52.355Z,17.65
2017-07-10T05:57:52.325Z,17.65
2017-07-10T05:58:52.318Z,17.68
2017-07-10T05:59:52.290Z,17.65
2017-07-10T06:00:52.317Z,17.55
2017-07-10T06:01:52.248Z,17.63
2017-07-10T06:02:52.278Z,17.62
2017-07-10T06:03:52.217Z,17.57
2017-07-10T06:04:52.189Z,17.63
2017-07-10T06:05:52.179Z,17.73
2017-07-10T06:06:52.150Z,17.73
2017-07-10T06:07:52.129Z,17.74
2017-07-10T06:08:52.114Z,17.87
2017-07-10T06:09:52.096Z,17.8
2017-07-10T06:10:52.070Z,17.94
2017-07-10T06:11:52.052Z,17.92
2017-07-10T06:12:52.029Z,18.01
2017-07-10T06:13:52.009Z,17.99
2017-07-10T06:14:51.988Z,17.95
2017-07-10T06:15:51.977Z,18.04
2017-07-10T06:16:51.948Z,17.92
2017-07-10T06:17:51.928Z,17.96
2017-07-10T06:18:51.919Z,17.99
2017-07-10T06:19:51.582Z,18.05
2017-07-10T06:20:51.876Z,18.07
2017-07-10T06:21:51.896Z,18.05
2017-07-10T06:22:51.825Z,18.04
2017-07-10T06:23:51.863Z,18.04
2017-07-10T06:24:51.785Z,18.05
2017-07-10T06:25:51.777Z,18.1
2017-07-10T06:26:51.745Z,18.11
2017-07-10T06:27:51.726Z,18.1
2017-07-10T06:28:51.710Z,18.09
2017-07-10T06:29:51.697Z,18.01
2017-07-10T06:30:51.676Z,18.02
2017-07-10T06:31:51.659Z,18.07
2017-07-10T06:32:51.631Z,18.1
2017-07-10T06:33:51.657Z,18.13
2017-07-10T06:34:51.597Z,18.19
2017-07-10T06:35:51.585Z,18.09
2017-07-10T06:36:51.557Z,18.09
2017-07-10T06:37:51.534Z,18.07
2017-07-10T06:38:51.519Z,18.02
2017-07-10T06:39:51.495Z,18.07
2017-07-10T06:40:51.471Z,18.02
2017-07-10T06:41:51.145Z,18.09
2017-07-10T06:42:51.174Z,18.1
2017-07-10T06:43:51.414Z,18.07
2017-07-10T06:44:51.395Z,18.13
2017-07-10T06:45:51.370Z,18.21
2017-07-10T06:46:51.357Z,18.29
2017-07-10T06:47:51.335Z,18.29
2017-07-10T06:48:51.316Z,18.32
2017-07-10T06:49:51.300Z,18.35
2017-07-10T06:50:51.278Z,18.34
2017-07-10T06:51:51.255Z,18.49
2017-07-10T06:52:51.236Z,18.53
2017-07-10T06:53:51.222Z,18.56
2017-07-10T06:54:51.253Z,18.64
2017-07-10T06:55:51.186Z,18.65
2017-07-10T06:56:51.177Z,18.65
2017-07-10T06:57:51.138Z,18.66
2017-07-10T06:58:50.813Z,18.75
2017-07-10T06:59:51.097Z,18.84
2017-07-10T07:00:51.079Z,18.86
2017-07-10T07:01:51.060Z,18.99
2017-07-10T07:02:50.731Z,18.96
2017-07-10T07:03:51.018Z,19.05
2017-07-10T07:04:50.999Z,19.15
2017-07-10T07:05:51.092Z,19.21
2017-07-10T07:06:50.963Z,19.13
2017-07-10T07:07:51.007Z,19.31
2017-07-10T07:08:50.933Z,19.39
2017-07-10T07:09:50.902Z,19.38
2017-07-10T07:10:50.890Z,19.4
2017-07-10T07:11:50.868Z,19.49
2017-07-10T07:12:50.852Z,19.58
2017-07-10T07:13:50.829Z,19.6
2017-07-10T07:14:50.820Z,19.65
2017-07-10T07:15:50.845Z,19.62
2017-07-10T07:16:50.775Z,19.65
2017-07-10T07:17:50.455Z,19.64
2017-07-10T07:18:50.780Z,19.71
2017-07-10T07:19:50.720Z,19.8
2017-07-10T07:20:50.697Z,19.85
2017-07-10T07:21:50.696Z,19.79
2017-07-10T07:22:50.667Z,19.76
2017-07-10T07:23:50.632Z,19.82
2017-07-10T07:24:50.633Z,19.78
2017-07-10T07:25:50.613Z,19.79
2017-07-10T07:26:50.586Z,19.83
2017-07-10T07:27:50.560Z,19.82
2017-07-10T07:28:50.547Z,19.78
2017-07-10T07:29:50.534Z,19.9
2017-07-10T07:30:50.208Z,19.86
2017-07-10T07:31:50.509Z,19.87
2017-07-10T07:32:50.479Z,19.86
2017-07-10T07:33:50.449Z,19.89
2017-07-10T07:34:50.124Z,19.92
2017-07-10T07:35:50.408Z,19.94
2017-07-10T07:36:50.395Z,19.92
2017-07-10T07:37:50.375Z,19.89
2017-07-10T07:38:50.357Z,19.94
2017-07-10T07:39:50.342Z,19.94
2017-07-10T07:40:50.385Z,19.86
2017-07-10T07:41:50.003Z,19.83
2017-07-10T07:42:50.294Z,19.9
2017-07-10T07:43:50.266Z,19.83
2017-07-10T07:44:50.000Z,19.9
2017-07-10T07:45:51.333Z,19.86
2017-07-10T07:46:50.211Z,19.8
2017-07-10T07:47:50.187Z,19.86
2017-07-10T07:48:50.177Z,19.82
2017-07-10T07:49:50.157Z,19.85
2017-07-10T07:50:50.142Z,19.75
2017-07-10T07:51:50.172Z,19.78
2017-07-10T07:52:50.098Z,19.8
2017-07-10T07:53:50.133Z,19.78
2017-07-10T07:54:50.058Z,19.78
2017-07-10T07:55:50.185Z,19.76
2017-07-10T07:56:50.023Z,19.78
2017-07-10T07:57:50.004Z,19.79
2017-07-10T07:58:50.031Z,19.82
2017-07-10T07:59:49.970Z,19.76
2017-07-10T08:00:50.004Z,19.71
2017-07-10T08:01:49.925Z,19.68
2017-07-10T08:02:49.902Z,19.65
2017-07-10T08:03:49.946Z,19.67
2017-07-10T08:04:49.876Z,19.71
2017-07-10T08:05:49.855Z,19.7
2017-07-10T08:06:49.832Z,19.72
2017-07-10T08:07:49.813Z,19.62
2017-07-10T08:08:49.805Z,19.82
2017-07-10T08:09:49.830Z,19.67
2017-07-10T08:10:49.755Z,19.79
2017-07-10T08:11:49.740Z,19.82
2017-07-10T08:12:49.722Z,19.85
2017-07-10T08:13:49.711Z,19.79
2017-07-10T08:14:49.737Z,19.82
2017-07-10T08:15:49.664Z,19.87
2017-07-10T08:16:49.802Z,19.83
2017-07-10T08:17:49.629Z,19.83
2017-07-10T08:18:49.617Z,19.86
2017-07-10T08:19:49.686Z,19.82
2017-07-10T08:20:49.578Z,19.82
2017-07-10T08:21:49.554Z,19.82
2017-07-10T08:22:49.530Z,19.8
2017-07-10T08:23:49.515Z,19.86
2017-07-10T08:24:49.500Z,19.87
2017-07-10T08:25:49.484Z,19.94
2017-07-10T08:26:49.459Z,19.95
2017-07-10T08:27:49.469Z,19.94
2017-07-10T08:28:49.425Z,19.9
2017-07-10T08:29:49.201Z,19.83
2017-07-10T08:30:49.388Z,19.87
2017-07-10T08:31:49.356Z,19.89
2017-07-10T08:32:49.352Z,19.92
2017-07-10T08:33:49.338Z,19.95
2017-07-10T08:34:49.306Z,19.94
2017-07-10T08:35:49.295Z,19.97
2017-07-10T08:36:49.280Z,19.94
2017-07-10T08:37:49.498Z,20.13
2017-07-10T08:38:49.242Z,19.95
2017-07-10T08:39:49.471Z,20.05
2017-07-10T08:40:49.248Z,20.01
2017-07-10T08:41:49.183Z,20.1
2017-07-10T08:42:49.162Z,20.1
2017-07-10T08:43:49.146Z,20.07
2017-07-10T08:44:48.809Z,20.15
2017-07-10T08:45:49.093Z,20.1
2017-07-10T08:46:48.770Z,20.05
2017-07-10T08:47:48.762Z,20.15
2017-07-10T08:48:49.044Z,20.17
2017-07-10T08:49:49.049Z,20.2
2017-07-10T08:50:48.695Z,20.2
2017-07-10T08:51:49.005Z,20.22
2017-07-10T08:52:49.164Z,20.25
2017-07-10T08:53:48.955Z,20.15
2017-07-10T08:54:48.947Z,20.31
2017-07-10T08:55:49.111Z,20.27
2017-07-10T08:56:48.952Z,20.26
2017-07-10T08:57:48.896Z,20.38
2017-07-10T08:58:48.855Z,20.35
2017-07-10T08:59:48.913Z,20.35
2017-07-10T09:00:48.819Z,20.48
2017-07-10T09:01:48.831Z,20.54
2017-07-10T09:02:49.020Z,20.53
2017-07-10T09:03:48.801Z,20.57
2017-07-10T09:04:48.742Z,20.64
2017-07-10T09:05:48.876Z,20.64
2017-07-10T09:06:48.407Z,20.68
2017-07-10T09:07:48.694Z,20.75
2017-07-10T09:08:48.677Z,20.75
2017-07-10T09:09:48.351Z,20.72
2017-07-10T09:10:48.727Z,20.85
2017-07-10T09:11:48.640Z,20.82
2017-07-10T09:12:48.645Z,20.9
2017-07-10T09:13:48.593Z,21
2017-07-10T09:14:48.265Z,21.03
2017-07-10T09:15:48.605Z,21.06
2017-07-10T09:16:48.591Z,21.09
2017-07-10T09:17:48.529Z,21.24
2017-07-10T09:18:48.635Z,21.36
2017-07-10T09:19:48.480Z,21.42
2017-07-10T09:20:48.450Z,21.46
2017-07-10T09:21:48.483Z,21.53
2017-07-10T09:22:48.416Z,21.55
2017-07-10T09:23:48.443Z,21.66
2017-07-10T09:24:48.387Z,21.68
2017-07-10T09:25:48.361Z,21.79
2017-07-10T09:26:48.360Z,21.89
2017-07-10T09:27:48.331Z,21.96
2017-07-10T09:28:48.310Z,21.98
2017-07-10T09:29:48.295Z,21.98
2017-07-10T09:30:48.276Z,21.96
2017-07-10T09:31:48.516Z,21.98
2017-07-10T09:32:48.239Z,21.98
2017-07-10T09:33:48.224Z,22.04
2017-07-10T09:34:48.211Z,22.11
2017-07-10T09:35:48.192Z,22.12
2017-07-10T09:36:47.868Z,22.23
2017-07-10T09:37:48.165Z,22.26
2017-07-10T09:38:48.149Z,22.27
2017-07-10T09:39:47.812Z,22.41
2017-07-10T09:40:47.794Z,22.38
2017-07-10T09:41:48.096Z,22.35
2017-07-10T09:42:47.761Z,22.39
2017-07-10T09:43:48.165Z,22.52
2017-07-10T09:44:48.036Z,22.54
2017-07-10T09:45:48.030Z,22.51
2017-07-10T09:46:48.008Z,22.66
2017-07-10T09:47:47.998Z,22.67
2017-07-10T09:48:47.767Z,22.76
2017-07-10T09:49:47.647Z,22.86
2017-07-10T09:50:47.949Z,22.86
2017-07-10T09:51:47.919Z,22.84
2017-07-10T09:52:47.900Z,22.89
2017-07-10T09:53:47.915Z,22.84
2017-07-10T09:54:47.924Z,22.99
2017-07-10T09:55:47.857Z,23.07
2017-07-10T09:56:47.839Z,23.06
2017-07-10T09:57:47.816Z,23.25
2017-07-10T09:58:47.874Z,23.38
2017-07-10T09:59:47.794Z,23.56
2017-07-10T10:00:47.774Z,23.72
2017-07-10T10:01:47.755Z,24.04
2017-07-10T10:02:47.740Z,24.16
2017-07-10T10:03:47.730Z,24.42
2017-07-10T10:04:47.872Z,24.75
2017-07-10T10:05:47.694Z,25.05
2017-07-10T10:06:47.693Z,25.19
2017-07-10T10:07:47.678Z,25.44
2017-07-10T10:08:47.655Z,25.6
2017-07-10T10:09:47.635Z,25.82
2017-07-10T10:10:47.622Z,26.01
2017-07-10T10:11:47.615Z,26.51
2017-07-10T10:12:47.652Z,26.78
2017-07-10T10:13:47.701Z,27.05
2017-07-10T10:14:47.581Z,27.01
2017-07-10T10:15:47.568Z,27.15
2017-07-10T10:16:47.551Z,27.33
2017-07-10T10:17:47.561Z,27.78
2017-07-10T10:18:47.222Z,27.9
2017-07-10T10:19:47.521Z,27.91
2017-07-10T10:20:47.870Z,28.01
2017-07-10T10:21:47.493Z,28.09
2017-07-10T10:22:47.543Z,28.01
2017-07-10T10:23:47.482Z,27.9
2017-07-10T10:24:47.768Z,27.72
2017-07-10T10:25:47.464Z,27.91
2017-07-10T10:26:47.298Z,28.01
2017-07-10T10:27:47.447Z,28.25
2017-07-10T10:28:47.427Z,28.36
2017-07-10T10:29:47.427Z,28.5
2017-07-10T10:30:47.661Z,28.64
2017-07-10T10:31:47.405Z,28.7
2017-07-10T10:32:47.495Z,28.79
2017-07-10T10:33:47.637Z,28.83
2017-07-10T10:34:47.373Z,28.79
2017-07-10T10:35:47.378Z,28.6
2017-07-10T10:36:47.353Z,28.46
2017-07-10T10:37:47.347Z,28.23
2017-07-10T10:38:47.334Z,27.87
2017-07-10T10:39:47.334Z,27.61
2017-07-10T10:40:47.415Z,27.38
2017-07-10T10:41:47.555Z,27.21
2017-07-10T10:42:47.311Z,26.98
2017-07-10T10:43:47.354Z,26.79
2017-07-10T10:44:47.278Z,26.66
2017-07-10T10:45:46.969Z,26.6
2017-07-10T10:46:47.254Z,26.42
2017-07-10T10:47:47.247Z,26.41
2017-07-10T10:48:48.039Z,26.16
2017-07-10T10:49:47.422Z,26.2
2017-07-10T10:50:48.214Z,26.19
2017-07-10T10:51:47.204Z,26.09
2017-07-10T10:52:47.182Z,26.01
2017-07-10T10:53:47.190Z,26
2017-07-10T10:54:46.849Z,26.01
2017-07-10T10:55:47.160Z,26.03
2017-07-10T10:56:47.149Z,25.89
2017-07-10T10:57:47.126Z,25.83
2017-07-10T10:58:47.107Z,25.81
2017-07-10T10:59:47.098Z,25.89
2017-07-10T11:00:47.161Z,25.86
2017-07-10T11:01:47.078Z,25.97
2017-07-10T11:02:47.158Z,26
2017-07-10T11:03:47.057Z,25.97
2017-07-10T11:04:47.038Z,26.03
2017-07-10T11:05:47.023Z,25.91
2017-07-10T11:06:47.002Z,25.9
2017-07-10T11:07:47.010Z,26.11
2017-07-10T11:08:46.986Z,26
2017-07-10T11:09:46.971Z,25.98
2017-07-10T11:10:47.355Z,25.9
2017-07-10T11:11:46.946Z,25.82
2017-07-10T11:12:47.172Z,25.85
2017-07-10T11:13:46.913Z,25.86
2017-07-10T11:14:46.901Z,25.85
2017-07-10T11:15:46.888Z,25.71
2017-07-10T11:16:46.928Z,25.71
2017-07-10T11:17:47.061Z,25.44
2017-07-10T11:18:46.853Z,25.3
2017-07-10T11:19:46.826Z,25.16
2017-07-10T11:20:46.837Z,25.05
2017-07-10T11:21:46.805Z,25.01
2017-07-10T11:22:46.788Z,25.12
2017-07-10T11:23:46.780Z,25.04
2017-07-10T11:24:46.759Z,25.01
2017-07-10T11:25:46.805Z,24.99
2017-07-10T11:26:46.739Z,25.05
2017-07-10T11:27:46.722Z,25.11
2017-07-10T11:28:46.714Z,25.3
2017-07-10T11:29:46.377Z,25.27
2017-07-10T11:30:46.680Z,25.39
2017-07-10T11:31:46.659Z,25.48
2017-07-10T11:32:46.655Z,25.51
2017-07-10T11:33:46.630Z,25.67
2017-07-10T11:34:46.673Z,25.76
2017-07-10T11:35:46.601Z,25.75
2017-07-10T11:36:46.589Z,26
2017-07-10T11:37:46.572Z,26
2017-07-10T11:38:46.558Z,26.04
2017-07-10T11:39:46.544Z,25.96
2017-07-10T11:40:46.529Z,25.93
2017-07-10T11:41:46.523Z,25.98
2017-07-10T11:42:46.510Z,25.69
2017-07-10T11:43:46.684Z,25.76
2017-07-10T11:44:46.473Z,25.79
2017-07-10T11:45:46.506Z,25.96
2017-07-10T11:46:46.442Z,25.96
2017-07-10T11:47:46.495Z,25.97
2017-07-10T11:48:46.410Z,25.94
2017-07-10T11:49:46.417Z,25.9
2017-07-10T11:50:46.440Z,25.85
2017-07-10T11:51:46.369Z,25.82
2017-07-10T11:52:46.362Z,25.6
2017-07-10T11:53:46.039Z,25.56
2017-07-10T11:54:46.337Z,25.48
2017-07-10T11:55:46.317Z,25.38
2017-07-10T11:56:46.308Z,25.24
2017-07-10T11:57:46.292Z,25.17
2017-07-10T11:58:46.275Z,25.16
2017-07-10T11:59:46.268Z,25.04
2017-07-10T12:00:46.300Z,24.98
2017-07-10T12:01:46.221Z,25.01
2017-07-10T12:02:46.208Z,25.05
2017-07-10T12:03:46.204Z,25.01
2017-07-10T12:04:46.183Z,24.84
2017-07-10T12:05:46.166Z,24.89
2017-07-10T12:06:46.251Z,24.97
2017-07-10T12:07:46.144Z,25.02
2017-07-10T12:08:46.146Z,24.94
2017-07-10T12:09:46.317Z,24.92
2017-07-10T12:10:46.094Z,24.94
2017-07-10T12:11:46.076Z,24.92
2017-07-10T12:12:46.063Z,24.9
2017-07-10T12:13:45.836Z,24.89
2017-07-10T12:14:45.925Z,24.93
2017-07-10T12:15:46.009Z,25.01
2017-07-10T12:16:46.004Z,24.92
2017-07-10T12:17:45.988Z,24.94
2017-07-10T12:18:46.061Z,25.04
2017-07-10T12:19:45.952Z,24.97
2017-07-10T12:20:45.929Z,24.98
2017-07-10T12:21:45.925Z,25.09
2017-07-10T12:22:45.911Z,25.22
2017-07-10T12:23:45.937Z,25.17
2017-07-10T12:24:45.922Z,25.09
2017-07-10T12:25:45.864Z,25.12
2017-07-10T12:26:45.844Z,25.09
2017-07-10T12:27:45.825Z,25.29
2017-07-10T12:28:45.829Z,25.42
2017-07-10T12:29:45.800Z,25.67
2017-07-10T12:30:45.783Z,25.81
2017-07-10T12:31:45.820Z,25.89
2017-07-10T12:32:45.810Z,25.93
2017-07-10T12:33:45.745Z,25.9
2017-07-10T12:34:45.719Z,25.91
2017-07-10T12:35:45.699Z,26.01
2017-07-10T12:36:45.380Z,26.03
2017-07-10T12:37:45.678Z,26.13
2017-07-10T12:38:45.718Z,26.17
2017-07-10T12:39:45.654Z,26.29
2017-07-10T12:40:45.639Z,26.31
2017-07-10T12:41:45.630Z,26.34
2017-07-10T12:42:45.622Z,26.31
2017-07-10T12:43:45.709Z,26.31
2017-07-10T12:44:45.270Z,26.28
2017-07-10T12:45:45.573Z,26.19
2017-07-10T12:46:45.606Z,26.04
2017-07-10T12:47:45.551Z,25.9
2017-07-10T12:48:45.523Z,25.96
2017-07-10T12:49:45.509Z,26.01
2017-07-10T12:50:45.532Z,25.93
2017-07-10T12:51:45.585Z,25.81
2017-07-10T12:52:45.472Z,25.69
2017-07-10T12:53:45.444Z,25.66
2017-07-10T12:54:45.435Z,25.59
2017-07-10T12:55:45.419Z,25.51